Time;durP1;ratioP1;P1;durP2;ratioP2;P2;SDS_P1;SDS_P2;PMS_P1;PMS_P2;Temp;Humidity;BMP_temperature;BMP_pressure;BME280_temperature;BME280_humidity;BME280_pressure;Samples;Min_cycle;Max_cycle;Signal;HPM_P1;HPM_P2
2021/05/07 00:00:07;;;;;;;222.15;197.60;;;;;;;;;;2068348;28;20490;-70
2021/05/07 00:01:10;;;;;;;220.77;194.30;;;;;;;;;;2065840;28;20029;-69
2021/05/07 00:02:11;;;;;;;215.52;186.23;;;;;;;;;;2071872;28;20029;-72
2021/05/07 00:03:12;;;;;;;203.85;174.80;;;;;;;;;;2070879;28;20041;-71
2021/05/07 00:04:14;;;;;;;215.75;187.75;;;;;;;;;;2066716;28;20048;-73
2021/05/07 00:05:16;;;;;;;217.70;188.48;;;;;;;;;;2071954;28;20025;-72
2021/05/07 00:06:17;;;;;;;206.30;176.80;;;;;;;;;;2072246;28;20053;-72
2021/05/07 00:07:18;;;;;;;194.38;168.07;;;;;;;;;;2070502;28;20090;-70
2021/05/07 00:08:19;;;;;;;204.85;174.57;;;;;;;;;;2061193;28;20422;-73
2021/05/07 00:09:20;;;;;;;197.18;172.15;;;;;;;;;;2064104;28;20684;-73
2021/05/07 00:10:22;;;;;;;197.73;167.18;;;;;;;;;;2071938;28;20113;-72
2021/05/07 00:11:23;;;;;;;190.75;167.57;;;;;;;;;;2071878;28;20160;-73
2021/05/07 00:12:24;;;;;;;193.95;168.07;;;;;;;;;;2067237;28;20093;-70
2021/05/07 00:13:25;;;;;;;180.73;154.07;;;;;;;;;;2068075;28;20099;-74
2021/05/07 00:14:26;;;;;;;184.30;156.48;;;;;;;;;;2070708;28;20036;-74
2021/05/07 00:15:27;;;;;;;193.10;164.63;;;;;;;;;;2066841;28;20026;-72
2021/05/07 00:16:29;;;;;;;186.98;162.52;;;;;;;;;;2064666;28;20025;-70
2021/05/07 00:17:30;;;;;;;184.75;158.30;;;;;;;;;;2069364;28;20029;-73
2021/05/07 00:18:31;;;;;;;171.13;147.02;;;;;;;;;;2071999;28;20026;-74
2021/05/07 00:19:32;;;;;;;;;;;;;;;;;;2067574;28;20030;-72
2021/05/07 00:20:33;;;;;;;182.97;152.40;;;;;;;;;;2072868;28;19940;-73
2021/05/07 00:21:35;;;;;;;177.52;154.98;;;;;;;;;;2069109;28;20418;-71
2021/05/07 00:22:37;;;;;;;176.48;150.32;;;;;;;;;;2065566;28;20025;-73
2021/05/07 00:23:38;;;;;;;168.30;143.70;;;;;;;;;;2055877;28;20959;-73
2021/05/07 00:24:40;;;;;;;172.85;148.68;;;;;;;;;;2072821;28;20296;-74
2021/05/07 00:25:41;;;;;;;164.13;143.02;;;;;;;;;;2070272;28;20025;-70
2021/05/07 00:26:42;;;;;;;;;;;;;;;;;;2072689;28;20223;-73
2021/05/07 00:27:43;;;;;;;154.97;134.57;;;;;;;;;;2067401;28;20357;-73
2021/05/07 00:28:44;;;;;;;157.63;134.98;;;;;;;;;;2062339;28;20281;-69
2021/05/07 00:29:46;;;;;;;161.73;137.30;;;;;;;;;;2073085;28;20047;-73
2021/05/07 00:30:47;;;;;;;151.30;132.85;;;;;;;;;;2069565;28;20132;-70
2021/05/07 00:31:48;;;;;;;149.18;129.20;;;;;;;;;;2066345;28;20039;-71
2021/05/07 00:32:49;;;;;;;149.00;127.68;;;;;;;;;;2063126;28;20241;-73
2021/05/07 00:33:50;;;;;;;151.73;129.75;;;;;;;;;;2069653;28;20026;-73
2021/05/07 00:34:52;;;;;;;144.57;127.05;;;;;;;;;;2070140;28;20032;-72
2021/05/07 00:35:53;;;;;;;135.18;118.72;;;;;;;;;;2063259;28;20085;-71
2021/05/07 00:36:54;;;;;;;129.25;114.93;;;;;;;;;;2069233;28;20033;-73
2021/05/07 00:37:55;;;;;;;136.70;119.38;;;;;;;;;;2071031;28;20033;-73
2021/05/07 00:38:56;;;;;;;135.23;117.70;;;;;;;;;;2066354;28;20029;-74
2021/05/07 00:39:57;;;;;;;119.93;106.35;;;;;;;;;;2055813;28;20026;-73
2021/05/07 00:40:58;;;;;;;128.55;108.47;;;;;;;;;;2070874;28;20147;-73
2021/05/07 00:42:08;;;;;;;;;;;;;;;;;;2071499;28;20045;-73
2021/05/07 00:43:10;;;;;;;129.45;113.45;;;;;;;;;;2065276;28;19948;-72
2021/05/07 00:44:11;;;;;;;120.85;106.75;;;;;;;;;;2071066;28;20029;-73
2021/05/07 00:45:13;;;;;;;123.32;109.28;;;;;;;;;;2065382;28;20029;-73
2021/05/07 00:46:14;;;;;;;131.90;116.78;;;;;;;;;;2071217;28;20330;-73
2021/05/07 00:47:17;;;;;;;124.53;108.65;;;;;;;;;;2067054;28;20034;-71
2021/05/07 00:48:18;;;;;;;115.35;102.68;;;;;;;;;;2069198;28;20108;-70
2021/05/07 00:49:19;;;;;;;123.05;107.82;;;;;;;;;;2067924;28;20037;-73
2021/05/07 00:50:21;;;;;;;110.30;96.38;;;;;;;;;;2068549;28;20029;-71
2021/05/07 00:51:22;;;;;;;;;;;;;;;;;;2061916;28;20074;-70
2021/05/07 00:52:23;;;;;;;114.68;97.60;;;;;;;;;;2064149;28;19917;-72
2021/05/07 00:53:28;;;;;;;107.53;94.80;;;;;;;;;;2069034;28;20009;-73
2021/05/07 00:54:29;;;;;;;101.68;89.70;;;;;;;;;;2072628;28;20213;-73
2021/05/07 00:55:31;;;;;;;102.32;91.05;;;;;;;;;;2058409;28;20045;-71
2021/05/07 00:56:32;;;;;;;106.40;94.68;;;;;;;;;;2071530;28;20413;-73
2021/05/07 00:57:34;;;;;;;99.95;88.93;;;;;;;;;;2066487;28;20056;-72
2021/05/07 00:58:35;;;;;;;96.60;86.13;;;;;;;;;;2070553;28;20335;-74
2021/05/07 00:59:37;;;;;;;105.45;93.88;;;;;;;;;;2073479;28;20053;-73
2021/05/07 01:00:38;;;;;;;99.68;88.75;;;;;;;;;;2063934;28;20413;-73
2021/05/07 01:01:39;;;;;;;;;;;;;;;;;;2072917;28;20025;-73
2021/05/07 01:02:40;;;;;;;95.60;83.65;;;;;;;;;;2064378;28;20214;-69
2021/05/07 01:03:41;;;;;;;93.47;83.20;;;;;;;;;;2064121;28;20479;-72
2021/05/07 01:04:42;;;;;;;87.88;76.97;;;;;;;;;;2065622;28;20155;-71
2021/05/07 01:05:43;;;;;;;;;;;;;;;;;;2066160;28;20029;-73
2021/05/07 01:06:45;;;;;;;100.23;86.37;;;;;;;;;;2063245;28;19917;-73
2021/05/07 01:07:45;;;;;;;;;;;;;;;;;;2065515;28;20037;-73
2021/05/07 01:08:46;;;;;;;90.83;79.17;;;;;;;;;;2068223;28;20582;-71
2021/05/07 01:09:51;;;;;;;85.25;76.00;;;;;;;;;;2071782;28;20109;-72
2021/05/07 01:10:53;;;;;;;87.20;77.63;;;;;;;;;;2055952;28;20057;-73
2021/05/07 01:11:54;;;;;;;83.85;74.03;;;;;;;;;;2070739;28;20018;-70
2021/05/07 01:12:55;;;;;;;83.55;74.38;;;;;;;;;;2071685;28;20052;-72
2021/05/07 01:13:56;;;;;;;80.82;71.65;;;;;;;;;;2069218;28;20033;-72
2021/05/07 01:15:00;;;;;;;79.32;70.78;;;;;;;;;;2072139;28;20026;-72
2021/05/07 01:16:04;;;;;;;84.35;74.43;;;;;;;;;;2070746;28;20018;-72
2021/05/07 01:17:05;;;;;;;76.53;67.78;;;;;;;;;;2063386;28;20063;-70
2021/05/07 01:18:06;;;;;;;78.68;70.25;;;;;;;;;;2065976;28;20429;-73
2021/05/07 01:19:07;;;;;;;72.95;64.88;;;;;;;;;;2069816;28;20244;-73
2021/05/07 01:20:18;;;;;;;77.78;69.45;;;;;;;;;;2067012;28;20061;-70
2021/05/07 01:21:19;;;;;;;76.95;68.60;;;;;;;;;;2063167;28;20542;-73
2021/05/07 01:22:20;;;;;;;77.75;67.40;;;;;;;;;;2064627;28;20119;-72
2021/05/07 01:23:21;;;;;;;73.93;66.03;;;;;;;;;;2071490;28;20029;-73
2021/05/07 01:24:26;;;;;;;75.63;67.53;;;;;;;;;;2071988;28;20095;-73
2021/05/07 01:25:33;;;;;;;72.13;63.95;;;;;;;;;;2072818;28;20197;-73
2021/05/07 01:26:34;;;;;;;70.57;62.95;;;;;;;;;;2058741;28;20286;-72
2021/05/07 01:27:35;;;;;;;;;;;;;;;;;;2073410;28;20069;-72
2021/05/07 01:28:36;;;;;;;68.90;61.20;;;;;;;;;;2071765;28;19913;-71
2021/05/07 01:29:37;;;;;;;67.75;60.28;;;;;;;;;;2066326;28;20279;-72
2021/05/07 01:30:40;;;;;;;68.60;58.85;;;;;;;;;;2070261;28;20037;-73
2021/05/07 01:31:45;;;;;;;64.53;57.42;;;;;;;;;;2068246;28;20041;-69
2021/05/07 01:32:47;;;;;;;62.53;55.67;;;;;;;;;;2063974;28;20032;-69
2021/05/07 01:33:48;;;;;;;62.88;56.20;;;;;;;;;;2068874;28;20029;-74
2021/05/07 01:34:49;;;;;;;64.78;57.70;;;;;;;;;;2072537;28;20026;-72
2021/05/07 01:35:50;;;;;;;61.63;54.80;;;;;;;;;;2063992;28;20061;-72
2021/05/07 01:36:51;;;;;;;60.40;53.20;;;;;;;;;;2065441;28;20478;-72
2021/05/07 01:37:53;;;;;;;59.35;53.00;;;;;;;;;;2061099;28;20037;-71
2021/05/07 01:38:54;;;;;;;58.53;52.15;;;;;;;;;;2071038;28;20379;-70
2021/05/07 01:39:56;;;;;;;57.55;51.17;;;;;;;;;;2071656;28;20030;-70
2021/05/07 01:40:57;;;;;;;58.10;51.47;;;;;;;;;;2072112;28;20736;-74
2021/05/07 01:41:58;;;;;;;;;;;;;;;;;;2059838;28;20499;-69
2021/05/07 01:42:59;;;;;;;58.93;51.60;;;;;;;;;;2072528;28;19959;-73
2021/05/07 01:44:00;;;;;;;;;;;;;;;;;;2072651;28;20501;-73
2021/05/07 01:45:02;;;;;;;58.13;50.00;;;;;;;;;;2062113;28;20256;-70
2021/05/07 01:46:04;;;;;;;57.58;49.40;;;;;;;;;;2070605;28;20829;-72
2021/05/07 01:47:05;;;;;;;;;;;;;;;;;;2070916;28;20052;-72
2021/05/07 01:48:07;;;;;;;53.33;46.97;;;;;;;;;;2059237;28;20525;-72
2021/05/07 01:49:08;;;;;;;52.55;45.65;;;;;;;;;;2070011;28;20204;-71
2021/05/07 01:50:09;;;;;;;52.75;47.20;;;;;;;;;;2071396;28;20254;-73
2021/05/07 01:51:10;;;;;;;51.20;45.70;;;;;;;;;;2065135;28;20412;-73
2021/05/07 01:52:11;;;;;;;49.63;44.22;;;;;;;;;;2071524;28;20036;-72
2021/05/07 01:53:13;;;;;;;52.30;46.75;;;;;;;;;;2068198;28;20316;-74
2021/05/07 01:54:14;;;;;;;;;;;;;;;;;;2071699;28;20076;-73
2021/05/07 01:55:16;;;;;;;49.28;43.42;;;;;;;;;;2070129;28;20011;-73
2021/05/07 01:56:17;;;;;;;49.50;44.10;;;;;;;;;;2072051;28;20022;-72
2021/05/07 01:57:18;;;;;;;47.72;41.75;;;;;;;;;;2057846;28;20062;-71
2021/05/07 01:58:19;;;;;;;49.40;44.05;;;;;;;;;;2071534;28;20026;-72
2021/05/07 01:59:20;;;;;;;46.28;41.38;;;;;;;;;;2072266;28;20025;-70
2021/05/07 02:00:23;;;;;;;46.40;40.58;;;;;;;;;;2069149;28;20510;-72
2021/05/07 02:01:24;;;;;;;46.20;41.40;;;;;;;;;;2071401;28;20239;-72
2021/05/07 02:02:25;;;;;;;44.17;39.42;;;;;;;;;;2070931;28;20140;-73
2021/05/07 02:03:26;;;;;;;46.03;39.25;;;;;;;;;;2062679;28;21444;-73
2021/05/07 02:04:27;;;;;;;43.60;38.85;;;;;;;;;;2070351;28;20085;-71
2021/05/07 02:05:31;;;;;;;43.58;38.88;;;;;;;;;;2067437;28;20255;-71
2021/05/07 02:06:32;;;;;;;42.03;37.53;;;;;;;;;;2065686;28;20692;-72
2021/05/07 02:07:33;;;;;;;41.75;37.28;;;;;;;;;;2065374;28;20205;-72
2021/05/07 02:08:34;;;;;;;39.50;35.10;;;;;;;;;;2070160;28;20281;-73
2021/05/07 02:09:36;;;;;;;40.03;35.88;;;;;;;;;;2072609;28;20047;-73
2021/05/07 02:10:38;;;;;;;39.60;35.40;;;;;;;;;;2070556;28;20105;-72
2021/05/07 02:11:39;;;;;;;39.28;35.22;;;;;;;;;;2068899;28;20029;-73
2021/05/07 02:12:40;;;;;;;37.38;33.47;;;;;;;;;;2066726;28;20041;-72
2021/05/07 02:13:41;;;;;;;39.58;35.38;;;;;;;;;;2054445;28;20060;-73
2021/05/07 02:14:42;;;;;;;38.33;34.13;;;;;;;;;;2071130;28;20052;-69
2021/05/07 02:15:43;;;;;;;37.25;33.35;;;;;;;;;;2071436;28;20386;-73
2021/05/07 02:16:44;;;;;;;35.70;31.88;;;;;;;;;;2071504;28;20632;-72
2021/05/07 02:17:46;;;;;;;36.55;32.75;;;;;;;;;;2067297;28;20350;-70
2021/05/07 02:18:47;;;;;;;36.25;32.38;;;;;;;;;;2063591;28;20021;-72
2021/05/07 02:19:48;;;;;;;35.45;31.45;;;;;;;;;;2072748;28;20059;-72
2021/05/07 02:20:49;;;;;;;35.88;32.08;;;;;;;;;;2072160;28;20438;-71
2021/05/07 02:21:50;;;;;;;34.13;30.45;;;;;;;;;;2069729;28;20029;-73
2021/05/07 02:22:51;;;;;;;;;;;;;;;;;;2064599;28;20077;-73
2021/05/07 02:23:52;;;;;;;34.80;31.07;;;;;;;;;;2078325;28;19946;-72
2021/05/07 02:24:53;;;;;;;33.95;30.35;;;;;;;;;;2077975;28;20875;-73
2021/05/07 02:25:55;;;;;;;34.10;30.40;;;;;;;;;;2072331;28;20507;-73
2021/05/07 02:26:56;;;;;;;33.10;29.50;;;;;;;;;;2064770;28;20038;-72
2021/05/07 02:27:58;;;;;;;34.53;30.83;;;;;;;;;;2072009;28;20025;-73
2021/05/07 02:28:59;;;;;;;33.92;30.33;;;;;;;;;;2057352;28;20067;-72
2021/05/07 02:30:00;;;;;;;32.08;28.77;;;;;;;;;;2072093;28;20430;-73
2021/05/07 02:31:01;;;;;;;;;;;;;;;;;;2073304;28;20022;-71
2021/05/07 02:32:02;;;;;;;31.97;28.57;;;;;;;;;;2071337;28;19913;-73
2021/05/07 02:33:04;;;;;;;31.48;28.20;;;;;;;;;;2070180;28;20787;-73
2021/05/07 02:34:05;;;;;;;31.75;28.35;;;;;;;;;;2062348;28;22197;-72
2021/05/07 02:35:07;;;;;;;30.05;26.95;;;;;;;;;;2071080;28;20382;-73
2021/05/07 02:36:08;;;;;;;30.00;26.75;;;;;;;;;;2070245;28;20243;-73
2021/05/07 02:37:09;;;;;;;30.70;27.55;;;;;;;;;;2071348;28;20040;-73
2021/05/07 02:38:10;;;;;;;;;;;;;;;;;;2066469;28;20017;-73
2021/05/07 02:39:15;;;;;;;31.35;27.52;;;;;;;;;;2071687;28;19913;-72
2021/05/07 02:40:16;;;;;;;29.08;25.98;;;;;;;;;;2073058;28;20113;-72
2021/05/07 02:41:17;;;;;;;29.95;26.75;;;;;;;;;;2071572;28;20018;-72
2021/05/07 02:42:19;;;;;;;29.10;25.95;;;;;;;;;;2071958;28;20022;-73
2021/05/07 02:43:20;;;;;;;26.52;23.52;;;;;;;;;;2065286;28;20025;-71
2021/05/07 02:44:21;;;;;;;29.65;26.45;;;;;;;;;;2057873;28;20025;-72
2021/05/07 02:45:22;;;;;;;29.63;26.45;;;;;;;;;;2068128;28;20022;-73
2021/05/07 02:46:23;;;;;;;27.38;24.45;;;;;;;;;;2068802;28;20029;-71
2021/05/07 02:47:24;;;;;;;27.60;24.80;;;;;;;;;;2067838;28;20026;-72
2021/05/07 02:48:25;;;;;;;26.45;23.70;;;;;;;;;;2072069;28;20038;-72
2021/05/07 02:49:26;;;;;;;28.48;25.40;;;;;;;;;;2065675;28;20017;-69
2021/05/07 02:50:28;;;;;;;27.90;24.80;;;;;;;;;;2071181;28;20034;-73
2021/05/07 02:51:30;;;;;;;26.42;23.63;;;;;;;;;;2070803;28;20030;-73
2021/05/07 02:52:31;;;;;;;26.13;23.42;;;;;;;;;;2070432;28;20242;-73
2021/05/07 02:53:32;;;;;;;26.58;23.77;;;;;;;;;;2063235;28;20202;-71
2021/05/07 02:54:34;;;;;;;26.02;23.17;;;;;;;;;;2070536;28;20022;-69
2021/05/07 02:55:35;;;;;;;25.77;23.08;;;;;;;;;;2071470;28;20493;-73
2021/05/07 02:56:36;;;;;;;24.88;22.27;;;;;;;;;;2071844;28;20162;-71
2021/05/07 02:57:37;;;;;;;24.80;22.30;;;;;;;;;;2071096;28;20089;-72
2021/05/07 02:58:38;;;;;;;25.90;23.20;;;;;;;;;;2069985;28;20619;-72
2021/05/07 02:59:39;;;;;;;24.42;21.85;;;;;;;;;;2063064;28;20540;-70
2021/05/07 03:00:40;;;;;;;25.48;22.77;;;;;;;;;;2059242;28;21302;-71
2021/05/07 03:01:42;;;;;;;24.95;22.45;;;;;;;;;;2071420;28;20314;-72
2021/05/07 03:02:43;;;;;;;23.73;21.23;;;;;;;;;;2070214;28;20093;-73
2021/05/07 03:03:44;;;;;;;25.38;21.23;;;;;;;;;;2070686;28;20115;-72
2021/05/07 03:04:45;;;;;;;24.27;21.67;;;;;;;;;;2064117;28;20045;-71
2021/05/07 03:05:46;;;;;;;23.55;21.15;;;;;;;;;;2064492;28;20024;-72
2021/05/07 03:06:47;;;;;;;22.30;19.77;;;;;;;;;;2070118;28;20033;-72
2021/05/07 03:07:48;;;;;;;;;;;;;;;;;;2071758;28;20317;-71
2021/05/07 03:08:49;;;;;;;21.67;19.40;;;;;;;;;;2064853;28;20440;-72
2021/05/07 03:09:52;;;;;;;22.40;19.98;;;;;;;;;;2070249;28;20232;-73
2021/05/07 03:10:53;;;;;;;21.63;19.38;;;;;;;;;;2069223;28;20117;-73
2021/05/07 03:11:56;;;;;;;21.05;18.77;;;;;;;;;;2069189;28;20762;-72
2021/05/07 03:12:57;;;;;;;21.40;19.33;;;;;;;;;;2068650;28;20034;-73
2021/05/07 03:13:58;;;;;;;20.77;18.63;;;;;;;;;;2069725;28;20041;-68
2021/05/07 03:14:59;;;;;;;20.98;18.77;;;;;;;;;;2069785;28;20029;-72
2021/05/07 03:16:00;;;;;;;20.42;18.33;;;;;;;;;;2055529;28;20144;-72
2021/05/07 03:17:01;;;;;;;;;;;;;;;;;;2069826;28;20090;-72
2021/05/07 03:18:02;;;;;;;20.67;18.57;;;;;;;;;;2062862;28;19980;-72
2021/05/07 03:19:04;;;;;;;19.27;17.27;;;;;;;;;;2069317;28;20291;-71
2021/05/07 03:20:06;;;;;;;19.60;17.58;;;;;;;;;;2069652;28;20033;-72
2021/05/07 03:21:07;;;;;;;19.08;17.08;;;;;;;;;;2060703;28;20045;-73
2021/05/07 03:22:08;;;;;;;18.27;16.48;;;;;;;;;;2065379;28;20070;-71
2021/05/07 03:23:09;;;;;;;19.23;17.17;;;;;;;;;;2064699;28;20028;-73
2021/05/07 03:24:12;;;;;;;19.10;16.55;;;;;;;;;;2070113;28;20073;-73
2021/05/07 03:25:14;;;;;;;18.92;16.88;;;;;;;;;;2064374;28;20299;-73
2021/05/07 03:26:15;;;;;;;19.33;17.33;;;;;;;;;;2068567;28;20295;-73
2021/05/07 03:27:17;;;;;;;17.75;15.98;;;;;;;;;;2069112;28;20091;-71
2021/05/07 03:28:19;;;;;;;18.48;16.58;;;;;;;;;;2071556;28;20033;-73
2021/05/07 03:29:20;;;;;;;17.92;16.08;;;;;;;;;;2072406;28;20108;-73
2021/05/07 03:30:21;;;;;;;17.52;15.77;;;;;;;;;;2060010;28;20030;-70
2021/05/07 03:31:22;;;;;;;;;;;;;;;;;;2065145;28;20025;-70
2021/05/07 03:32:23;;;;;;;17.77;15.87;;;;;;;;;;2065421;28;20660;-71
2021/05/07 03:33:24;;;;;;;17.27;15.48;;;;;;;;;;2067275;28;20022;-74
2021/05/07 03:34:25;;;;;;;17.45;15.68;;;;;;;;;;2068770;28;20562;-74
2021/05/07 03:35:26;;;;;;;16.13;14.43;;;;;;;;;;2060912;28;20470;-71
2021/05/07 03:36:27;;;;;;;;;;;;;;;;;;2063756;28;20022;-73
2021/05/07 03:37:28;;;;;;;17.25;15.45;;;;;;;;;;2065478;28;19924;-73
2021/05/07 03:38:29;;;;;;;16.38;14.68;;;;;;;;;;2068470;28;20590;-71
2021/05/07 03:39:30;;;;;;;15.75;14.07;;;;;;;;;;2064343;28;21858;-73
2021/05/07 03:40:31;;;;;;;16.83;15.00;;;;;;;;;;2071017;28;20483;-73
2021/05/07 03:41:33;;;;;;;16.13;14.43;;;;;;;;;;2070543;28;20030;-71
2021/05/07 03:42:34;;;;;;;15.82;14.18;;;;;;;;;;2064458;28;20030;-72
2021/05/07 03:43:35;;;;;;;16.75;14.80;;;;;;;;;;2065862;28;20174;-72
2021/05/07 03:44:36;;;;;;;15.25;13.65;;;;;;;;;;2068184;28;20030;-73
2021/05/07 03:45:37;;;;;;;16.85;15.13;;;;;;;;;;2069811;28;20026;-73
2021/05/07 03:46:38;;;;;;;;;;;;;;;;;;2055498;28;20368;-70
2021/05/07 03:47:39;;;;;;;15.83;14.23;;;;;;;;;;2068714;28;19917;-73
2021/05/07 03:48:40;;;;;;;;;;;;;;;;;;2068877;28;20117;-73
2021/05/07 03:49:41;;;;;;;15.38;13.73;;;;;;;;;;2069331;28;19914;-70
2021/05/07 03:50:43;;;;;;;14.40;12.90;;;;;;;;;;2062320;28;20591;-73
2021/05/07 03:51:44;;;;;;;14.88;13.32;;;;;;;;;;2065228;28;20120;-73
2021/05/07 03:52:45;;;;;;;14.98;13.48;;;;;;;;;;2066493;28;20209;-72
2021/05/07 03:53:46;;;;;;;15.05;13.45;;;;;;;;;;2071465;28;20061;-73
2021/05/07 03:54:47;;;;;;;15.27;13.43;;;;;;;;;;2071866;28;20029;-72
2021/05/07 03:55:48;;;;;;;14.45;12.95;;;;;;;;;;2064694;28;20026;-72
2021/05/07 03:56:49;;;;;;;15.05;13.55;;;;;;;;;;2071245;28;20030;-73
2021/05/07 03:57:50;;;;;;;13.15;11.85;;;;;;;;;;2066441;28;20033;-72
2021/05/07 03:58:52;;;;;;;14.32;12.85;;;;;;;;;;2068790;28;20196;-72
2021/05/07 03:59:53;;;;;;;14.90;13.40;;;;;;;;;;2070184;28;20037;-73
2021/05/07 04:00:54;;;;;;;14.77;13.15;;;;;;;;;;2061125;28;20076;-73
2021/05/07 04:01:55;;;;;;;14.82;13.32;;;;;;;;;;2070725;28;20124;-72
2021/05/07 04:02:56;;;;;;;14.75;13.25;;;;;;;;;;2056889;28;20028;-72
2021/05/07 04:03:58;;;;;;;13.93;12.50;;;;;;;;;;2071587;28;20112;-71
2021/05/07 04:04:59;;;;;;;14.07;12.68;;;;;;;;;;2069723;28;20787;-74
2021/05/07 04:06:00;;;;;;;14.13;12.70;;;;;;;;;;2071142;28;20044;-71
2021/05/07 04:07:01;;;;;;;13.30;11.88;;;;;;;;;;2062079;28;20574;-73
2021/05/07 04:09:16;;;;;;;13.15;11.85;;;;;;;;;;2070628;28;20413;-72
2021/05/07 04:10:19;;;;;;;13.10;11.70;;;;;;;;;;2064897;28;20030;-70
2021/05/07 04:11:30;;;;;;;13.52;12.05;;;;;;;;;;2068544;28;20022;-72
2021/05/07 04:13:42;;;;;;;14.38;11.98;;;;;;;;;;2070731;28;20067;-71
2021/05/07 04:14:43;;;;;;;14.32;11.88;;;;;;;;;;2070241;28;20310;-71
2021/05/07 04:15:45;;;;;;;18.02;10.48;;;;;;;;;;2071214;28;20267;-71
2021/05/07 04:16:46;;;;;;;12.13;10.93;;;;;;;;;;2069381;28;20037;-72
2021/05/07 04:17:47;;;;;;;12.15;10.85;;;;;;;;;;2054686;28;20064;-69
2021/05/07 04:18:48;;;;;;;13.57;11.38;;;;;;;;;;2061452;28;20494;-70
2021/05/07 04:19:49;;;;;;;13.48;11.43;;;;;;;;;;2069086;28;20032;-70
2021/05/07 04:20:51;;;;;;;11.85;10.65;;;;;;;;;;2069407;28;20061;-69
2021/05/07 04:21:52;;;;;;;11.65;10.45;;;;;;;;;;2062409;28;20087;-70
2021/05/07 04:22:53;;;;;;;13.73;10.85;;;;;;;;;;2063921;28;20335;-70
2021/05/07 04:23:54;;;;;;;11.13;10.02;;;;;;;;;;2070011;28;20029;-70
2021/05/07 04:24:55;;;;;;;12.05;9.85;;;;;;;;;;2071158;28;20239;-69
2021/05/07 04:25:56;;;;;;;11.50;10.30;;;;;;;;;;2063529;28;20038;-70
2021/05/07 04:26:57;;;;;;;10.88;9.77;;;;;;;;;;2071666;28;20036;-72
2021/05/07 04:27:58;;;;;;;11.32;9.95;;;;;;;;;;2066744;28;20506;-70
2021/05/07 04:28:59;;;;;;;10.73;9.63;;;;;;;;;;2070549;28;20105;-70
2021/05/07 04:30:00;;;;;;;11.07;9.90;;;;;;;;;;2069986;28;20038;-71
2021/05/07 04:31:01;;;;;;;;;;;;;;;;;;2064983;28;20029;-70
2021/05/07 04:32:02;;;;;;;11.03;9.87;;;;;;;;;;2072841;28;19920;-70
2021/05/07 04:33:04;;;;;;;10.20;9.20;;;;;;;;;;2055168;28;20038;-70
2021/05/07 04:34:06;;;;;;;10.57;9.45;;;;;;;;;;2069657;28;20037;-70
2021/05/07 04:35:08;;;;;;;10.65;9.57;;;;;;;;;;2070883;28;20018;-69
2021/05/07 04:36:09;;;;;;;10.20;9.20;;;;;;;;;;2063869;28;20709;-70
2021/05/07 04:37:10;;;;;;;10.05;9.05;;;;;;;;;;2070396;28;20037;-70
2021/05/07 04:38:11;;;;;;;10.40;9.35;;;;;;;;;;2066285;28;20509;-70
2021/05/07 04:39:12;;;;;;;11.38;9.40;;;;;;;;;;2070024;28;20030;-70
2021/05/07 04:40:14;;;;;;;9.15;8.25;;;;;;;;;;2071146;28;20529;-71
2021/05/07 04:41:15;;;;;;;9.95;8.30;;;;;;;;;;2065681;28;20025;-70
2021/05/07 04:42:16;;;;;;;10.27;9.15;;;;;;;;;;2072123;28;20052;-71
2021/05/07 04:43:17;;;;;;;10.15;8.73;;;;;;;;;;2068436;28;20041;-70
2021/05/07 04:44:18;;;;;;;;;;;;;;;;;;2068022;28;20048;-71
2021/05/07 04:45:19;;;;;;;9.43;8.30;;;;;;;;;;2078799;28;19920;-71
2021/05/07 04:46:20;;;;;;;9.60;8.60;;;;;;;;;;2073432;28;20014;-70
2021/05/07 04:47:22;;;;;;;9.48;8.52;;;;;;;;;;2072535;28;20068;-69
2021/05/07 04:48:23;;;;;;;9.70;8.43;;;;;;;;;;2054864;28;20220;-70
2021/05/07 04:49:24;;;;;;;9.82;8.55;;;;;;;;;;2071490;28;20029;-72
2021/05/07 04:50:25;;;;;;;9.45;8.38;;;;;;;;;;2064815;28;20025;-71
2021/05/07 04:51:26;;;;;;;8.82;7.93;;;;;;;;;;2065414;28;20021;-70
2021/05/07 04:52:27;;;;;;;9.73;8.25;;;;;;;;;;2072774;28;20538;-70
2021/05/07 04:53:28;;;;;;;12.60;8.60;;;;;;;;;;2060283;28;20034;-73
2021/05/07 04:54:32;;;;;;;14.05;8.40;;;;;;;;;;2072133;28;20058;-70
2021/05/07 04:55:33;;;;;;;9.63;8.48;;;;;;;;;;2072316;28;20026;-72
2021/05/07 04:56:34;;;;;;;10.25;8.57;;;;;;;;;;2069765;28;20035;-75
2021/05/07 04:57:35;;;;;;;10.75;9.10;;;;;;;;;;2065661;28;20037;-73
2021/05/07 04:58:36;;;;;;;11.18;10.02;;;;;;;;;;2067905;28;20057;-70
2021/05/07 04:59:37;;;;;;;10.57;9.35;;;;;;;;;;2070429;28;20037;-71
2021/05/07 05:00:39;;;;;;;11.65;10.45;;;;;;;;;;2068107;28;20057;-71
2021/05/07 05:01:40;;;;;;;16.00;10.50;;;;;;;;;;2063518;28;20033;-72
2021/05/07 05:02:41;;;;;;;14.88;10.45;;;;;;;;;;2069190;28;20112;-72
2021/05/07 05:03:42;;;;;;;11.38;10.07;;;;;;;;;;2064786;28;20057;-71
2021/05/07 05:04:43;;;;;;;13.20;10.20;;;;;;;;;;2059711;28;20095;-71
2021/05/07 05:05:44;;;;;;;10.23;9.23;;;;;;;;;;2069795;28;20033;-72
2021/05/07 05:06:45;;;;;;;11.80;10.52;;;;;;;;;;2065138;28;20029;-70
2021/05/07 05:07:49;;;;;;;11.40;10.20;;;;;;;;;;2069272;28;20029;-71
2021/05/07 05:08:50;;;;;;;12.38;10.63;;;;;;;;;;2065475;28;20014;-71
2021/05/07 05:09:51;;;;;;;11.18;10.05;;;;;;;;;;2069110;28;20099;-72
2021/05/07 05:10:55;;;;;;;11.57;10.18;;;;;;;;;;2069858;28;20180;-72
2021/05/07 05:11:57;;;;;;;11.20;9.98;;;;;;;;;;2069122;28;20033;-73
2021/05/07 05:12:58;;;;;;;11.90;10.70;;;;;;;;;;2063953;28;20017;-71
2021/05/07 05:13:59;;;;;;;16.92;10.43;;;;;;;;;;2069507;28;20212;-72
2021/05/07 05:15:00;;;;;;;11.25;9.93;;;;;;;;;;2069515;28;20038;-72
2021/05/07 05:16:01;;;;;;;10.75;9.32;;;;;;;;;;2068187;28;20037;-71
2021/05/07 05:17:02;;;;;;;11.63;10.10;;;;;;;;;;2064703;28;20084;-72
2021/05/07 05:18:03;;;;;;;10.90;9.80;;;;;;;;;;2069212;28;20116;-72
2021/05/07 05:19:04;;;;;;;12.73;9.50;;;;;;;;;;2066513;28;20215;-71
2021/05/07 05:20:06;;;;;;;10.48;9.48;;;;;;;;;;2056272;28;20520;-72
2021/05/07 05:21:09;;;;;;;10.88;9.63;;;;;;;;;;2070448;28;20040;-72
2021/05/07 05:22:10;;;;;;;10.85;9.70;;;;;;;;;;2066449;28;20033;-72
2021/05/07 05:23:11;;;;;;;12.02;10.48;;;;;;;;;;2071404;28;20026;-72
2021/05/07 05:24:12;;;;;;;11.23;10.02;;;;;;;;;;2071954;28;20037;-72
2021/05/07 05:25:13;;;;;;;11.82;10.05;;;;;;;;;;2063006;28;20345;-73
2021/05/07 05:26:14;;;;;;;11.77;9.65;;;;;;;;;;2070346;28;20084;-72
2021/05/07 05:27:15;;;;;;;10.48;9.38;;;;;;;;;;2070818;28;20041;-72
2021/05/07 05:28:16;;;;;;;10.45;9.45;;;;;;;;;;2069392;28;20034;-73
2021/05/07 05:29:17;;;;;;;10.90;9.15;;;;;;;;;;2066654;28;20034;-72
2021/05/07 05:30:19;;;;;;;11.25;9.48;;;;;;;;;;2072956;28;20081;-72
2021/05/07 05:31:20;;;;;;;;;;;;;;;;;;2071737;28;20049;-71
2021/05/07 05:32:21;;;;;;;12.47;10.20;;;;;;;;;;2069328;28;19932;-72
2021/05/07 05:33:22;;;;;;;10.57;9.38;;;;;;;;;;2067891;28;20037;-71
2021/05/07 05:34:23;;;;;;;;;;;;;;;;;;2063812;28;20158;-71
2021/05/07 05:35:24;;;;;;;10.80;9.05;;;;;;;;;;2068568;28;19913;-73
2021/05/07 05:36:25;;;;;;;9.32;8.43;;;;;;;;;;2067460;28;20032;-72
2021/05/07 05:37:26;;;;;;;10.10;9.10;;;;;;;;;;2068482;28;20593;-73
2021/05/07 05:38:27;;;;;;;9.43;8.43;;;;;;;;;;2070754;28;20065;-73
2021/05/07 05:39:28;;;;;;;8.85;7.80;;;;;;;;;;2070821;28;20593;-72
2021/05/07 05:40:29;;;;;;;10.60;8.60;;;;;;;;;;2064182;28;20504;-70
2021/05/07 05:41:30;;;;;;;9.82;8.20;;;;;;;;;;2071098;28;20068;-72
2021/05/07 05:42:31;;;;;;;8.63;7.82;;;;;;;;;;2071545;28;20391;-73
2021/05/07 05:43:32;;;;;;;9.05;8.15;;;;;;;;;;2062771;28;20037;-70
2021/05/07 05:44:33;;;;;;;9.43;8.43;;;;;;;;;;2068703;28;20201;-73
2021/05/07 05:45:35;;;;;;;10.90;7.97;;;;;;;;;;2072455;28;20108;-73
2021/05/07 05:46:36;;;;;;;8.88;7.97;;;;;;;;;;2070701;28;20064;-74
2021/05/07 05:47:37;;;;;;;8.63;7.72;;;;;;;;;;2063745;28;20529;-73
2021/05/07 05:48:38;;;;;;;8.80;7.72;;;;;;;;;;2061923;28;20454;-74
2021/05/07 05:49:39;;;;;;;8.05;7.25;;;;;;;;;;2073323;28;20025;-71
2021/05/07 05:50:45;;;;;;;8.43;7.60;;;;;;;;;;2058559;28;20702;-73
2021/05/07 05:51:46;;;;;;;8.65;7.60;;;;;;;;;;2070307;28;21004;-72
2021/05/07 05:52:47;;;;;;;8.15;7.35;;;;;;;;;;2061659;28;21026;-73
2021/05/07 05:53:48;;;;;;;8.48;7.45;;;;;;;;;;2070121;28;20767;-70
2021/05/07 05:54:49;;;;;;;7.57;6.72;;;;;;;;;;2070906;28;20512;-73
2021/05/07 05:55:50;;;;;;;8.25;7.25;;;;;;;;;;2072563;28;21065;-73
2021/05/07 05:56:51;;;;;;;7.55;6.75;;;;;;;;;;2064543;28;20081;-69
2021/05/07 05:57:53;;;;;;;8.40;7.50;;;;;;;;;;2072443;28;20022;-73
2021/05/07 05:58:54;;;;;;;8.15;7.35;;;;;;;;;;2067534;28;20486;-75
2021/05/07 05:59:55;;;;;;;8.30;7.40;;;;;;;;;;2066826;28;20132;-70
2021/05/07 06:00:56;;;;;;;8.23;7.40;;;;;;;;;;2072977;28;20099;-73
2021/05/07 06:01:57;;;;;;;7.85;7.07;;;;;;;;;;2071142;28;20251;-74
2021/05/07 06:02:58;;;;;;;7.93;6.78;;;;;;;;;;2073632;28;20045;-69